sensor_id;sensor_type;location;lat;lon;timestamp;temperature;humidity
5192;DHT22;2615;44.524;11.284;2023-06-04T00:01:29;19.20;90.00
5192;DHT22;2615;44.524;11.284;2023-06-04T00:03:57;19.20;90.00
5192;DHT22;2615;44.524;11.284;2023-06-04T00:06:27;19.20;90.00
5192;DHT22;2615;44.524;11.284;2023-06-04T00:08:55;19.20;90.00
5192;DHT22;2615;44.524;11.284;2023-06-04T00:11:23;19.20;90.00
5192;DHT22;2615;44.524;11.284;2023-06-04T00:13:53;19.20;90.00
5192;DHT22;2615;44.524;11.284;2023-06-04T00:16:21;19.20;90.00
5192;DHT22;2615;44.524;11.284;2023-06-04T00:18:49;19.20;90.00
5192;DHT22;2615;44.524;11.284;2023-06-04T00:21:17;19.20;90.10
5192;DHT22;2615;44.524;11.284;2023-06-04T00:23:47;19.20;90.10
5192;DHT22;2615;44.524;11.284;2023-06-04T00:26:15;19.20;90.10
5192;DHT22;2615;44.524;11.284;2023-06-04T00:28:43;19.10;90.00
5192;DHT22;2615;44.524;11.284;2023-06-04T00:31:11;19.10;90.00
5192;DHT22;2615;44.524;11.284;2023-06-04T00:33:40;19.10;90.00
5192;DHT22;2615;44.524;11.284;2023-06-04T00:36:08;19.10;90.00
5192;DHT22;2615;44.524;11.284;2023-06-04T00:38:36;19.10;90.10
5192;DHT22;2615;44.524;11.284;2023-06-04T00:41:06;19.00;90.00
5192;DHT22;2615;44.524;11.284;2023-06-04T00:43:35;19.10;90.10
5192;DHT22;2615;44.524;11.284;2023-06-04T00:46:05;19.10;90.10
5192;DHT22;2615;44.524;11.284;2023-06-04T00:48:33;19.00;90.00
5192;DHT22;2615;44.524;11.284;2023-06-04T00:51:04;19.00;90.00
5192;DHT22;2615;44.524;11.284;2023-06-04T00:53:32;19.00;90.00
5192;DHT22;2615;44.524;11.284;2023-06-04T00:56:00;19.00;90.00
5192;DHT22;2615;44.524;11.284;2023-06-04T00:58:37;19.00;90.00
5192;DHT22;2615;44.524;11.284;2023-06-04T01:01:12;18.90;90.00
5192;DHT22;2615;44.524;11.284;2023-06-04T01:03:47;18.90;90.00
5192;DHT22;2615;44.524;11.284;2023-06-04T01:06:21;18.90;90.00
5192;DHT22;2615;44.524;11.284;2023-06-04T01:08:52;18.90;90.00
5192;DHT22;2615;44.524;11.284;2023-06-04T01:11:31;18.80;90.00
5192;DHT22;2615;44.524;11.284;2023-06-04T01:14:01;18.90;90.00
5192;DHT22;2615;44.524;11.284;2023-06-04T01:16:33;18.90;90.00
5192;DHT22;2615;44.524;11.284;2023-06-04T01:19:05;18.80;90.00
5192;DHT22;2615;44.524;11.284;2023-06-04T01:21:50;18.80;90.00
5192;DHT22;2615;44.524;11.284;2023-06-04T01:24:21;18.80;90.00
5192;DHT22;2615;44.524;11.284;2023-06-04T01:26:53;18.70;89.90
5192;DHT22;2615;44.524;11.284;2023-06-04T01:29:24;18.70;89.90
5192;DHT22;2615;44.524;11.284;2023-06-04T01:31:57;18.70;90.00
5192;DHT22;2615;44.524;11.284;2023-06-04T01:34:26;18.70;90.00
5192;DHT22;2615;44.524;11.284;2023-06-04T01:36:54;18.60;89.90
5192;DHT22;2615;44.524;11.284;2023-06-04T01:39:22;18.70;90.00
5192;DHT22;2615;44.524;11.284;2023-06-04T01:41:50;18.60;89.90
5192;DHT22;2615;44.524;11.284;2023-06-04T01:44:18;18.60;89.90
5192;DHT22;2615;44.524;11.284;2023-06-04T01:46:48;18.60;89.90
5192;DHT22;2615;44.524;11.284;2023-06-04T01:49:16;18.60;89.90
5192;DHT22;2615;44.524;11.284;2023-06-04T01:51:44;18.60;89.90
5192;DHT22;2615;44.524;11.284;2023-06-04T01:54:13;18.60;90.00
5192;DHT22;2615;44.524;11.284;2023-06-04T01:56:41;18.50;89.80
5192;DHT22;2615;44.524;11.284;2023-06-04T01:59:09;18.50;89.80
5192;DHT22;2615;44.524;11.284;2023-06-04T02:01:38;18.50;89.80
5192;DHT22;2615;44.524;11.284;2023-06-04T02:04:08;18.50;89.80
5192;DHT22;2615;44.524;11.284;2023-06-04T02:06:36;18.50;89.80
5192;DHT22;2615;44.524;11.284;2023-06-04T02:09:04;18.50;89.70
5192;DHT22;2615;44.524;11.284;2023-06-04T02:11:32;18.40;89.70
5192;DHT22;2615;44.524;11.284;2023-06-04T02:14:00;18.40;89.60
5192;DHT22;2615;44.524;11.284;2023-06-04T02:16:28;18.40;89.60
5192;DHT22;2615;44.524;11.284;2023-06-04T02:18:57;18.40;89.70
5192;DHT22;2615;44.524;11.284;2023-06-04T02:21:27;18.30;89.60
5192;DHT22;2615;44.524;11.284;2023-06-04T02:23:55;18.40;89.70
5192;DHT22;2615;44.524;11.284;2023-06-04T02:26:23;18.30;89.50
5192;DHT22;2615;44.524;11.284;2023-06-04T02:28:51;18.30;89.50
5192;DHT22;2615;44.524;11.284;2023-06-04T02:31:20;18.30;89.50
5192;DHT22;2615;44.524;11.284;2023-06-04T02:33:48;18.30;89.50
5192;DHT22;2615;44.524;11.284;2023-06-04T02:36:16;18.30;89.60
5192;DHT22;2615;44.524;11.284;2023-06-04T02:38:46;18.30;89.60
5192;DHT22;2615;44.524;11.284;2023-06-04T02:41:14;18.20;89.60
5192;DHT22;2615;44.524;11.284;2023-06-04T02:43:43;18.20;89.60
5192;DHT22;2615;44.524;11.284;2023-06-04T02:46:11;18.20;89.60
5192;DHT22;2615;44.524;11.284;2023-06-04T02:48:39;18.20;89.60
5192;DHT22;2615;44.524;11.284;2023-06-04T02:51:07;18.20;89.60
5192;DHT22;2615;44.524;11.284;2023-06-04T02:53:37;18.20;89.70
5192;DHT22;2615;44.524;11.284;2023-06-04T02:56:06;18.20;89.70
5192;DHT22;2615;44.524;11.284;2023-06-04T02:58:34;18.10;89.60
5192;DHT22;2615;44.524;11.284;2023-06-04T03:01:06;18.10;89.50
5192;DHT22;2615;44.524;11.284;2023-06-04T03:03:35;18.10;89.40
5192;DHT22;2615;44.524;11.284;2023-06-04T03:06:04;18.00;89.40
5192;DHT22;2615;44.524;11.284;2023-06-04T03:08:32;18.00;89.40
5192;DHT22;2615;44.524;11.284;2023-06-04T03:11:00;18.00;89.40
5192;DHT22;2615;44.524;11.284;2023-06-04T03:13:30;18.00;89.40
5192;DHT22;2615;44.524;11.284;2023-06-04T03:15:58;18.00;89.40
5192;DHT22;2615;44.524;11.284;2023-06-04T03:18:28;18.00;89.40
5192;DHT22;2615;44.524;11.284;2023-06-04T03:20:56;18.00;89.50
5192;DHT22;2615;44.524;11.284;2023-06-04T03:23:26;18.00;89.40
5192;DHT22;2615;44.524;11.284;2023-06-04T03:25:54;17.90;89.30
5192;DHT22;2615;44.524;11.284;2023-06-04T03:28:22;17.90;89.30
5192;DHT22;2615;44.524;11.284;2023-06-04T03:30:52;17.90;89.30
5192;DHT22;2615;44.524;11.284;2023-06-04T03:33:20;17.90;89.30
5192;DHT22;2615;44.524;11.284;2023-06-04T03:35:49;17.90;89.20
5192;DHT22;2615;44.524;11.284;2023-06-04T03:38:17;17.90;89.20
5192;DHT22;2615;44.524;11.284;2023-06-04T03:40:45;17.80;89.20
5192;DHT22;2615;44.524;11.284;2023-06-04T03:43:14;17.80;89.20
5192;DHT22;2615;44.524;11.284;2023-06-04T03:45:42;17.90;89.30
5192;DHT22;2615;44.524;11.284;2023-06-04T03:48:11;17.80;89.20
5192;DHT22;2615;44.524;11.284;2023-06-04T03:50:40;17.80;89.20
5192;DHT22;2615;44.524;11.284;2023-06-04T03:53:08;17.80;89.10
5192;DHT22;2615;44.524;11.284;2023-06-04T03:55:36;17.80;89.10
5192;DHT22;2615;44.524;11.284;2023-06-04T03:58:04;17.80;89.10
5192;DHT22;2615;44.524;11.284;2023-06-04T04:00:33;17.80;89.20
5192;DHT22;2615;44.524;11.284;2023-06-04T04:03:01;17.80;89.20
5192;DHT22;2615;44.524;11.284;2023-06-04T04:05:31;17.80;89.20
5192;DHT22;2615;44.524;11.284;2023-06-04T04:07:59;17.80;89.20
5192;DHT22;2615;44.524;11.284;2023-06-04T04:10:27;17.80;89.20
5192;DHT22;2615;44.524;11.284;2023-06-04T04:12:55;17.80;89.20
5192;DHT22;2615;44.524;11.284;2023-06-04T04:15:25;17.80;89.10
5192;DHT22;2615;44.524;11.284;2023-06-04T04:17:54;17.90;89.10
5192;DHT22;2615;44.524;11.284;2023-06-04T04:20:22;17.90;89.80
5192;DHT22;2615;44.524;11.284;2023-06-04T04:22:52;17.90;89.00
5192;DHT22;2615;44.524;11.284;2023-06-04T04:25:20;18.00;89.00
5192;DHT22;2615;44.524;11.284;2023-06-04T04:27:48;18.00;88.90
5192;DHT22;2615;44.524;11.284;2023-06-04T04:30:17;18.00;88.80
5192;DHT22;2615;44.524;11.284;2023-06-04T04:32:46;18.10;88.80
5192;DHT22;2615;44.524;11.284;2023-06-04T04:35:16;18.10;88.80
5192;DHT22;2615;44.524;11.284;2023-06-04T04:37:45;18.10;88.70
5192;DHT22;2615;44.524;11.284;2023-06-04T04:40:14;18.10;88.60
5192;DHT22;2615;44.524;11.284;2023-06-04T04:42:43;18.20;88.60
5192;DHT22;2615;44.524;11.284;2023-06-04T04:45:11;18.20;88.60
5192;DHT22;2615;44.524;11.284;2023-06-04T04:47:39;18.20;88.50
5192;DHT22;2615;44.524;11.284;2023-06-04T04:50:07;18.30;88.50
5192;DHT22;2615;44.524;11.284;2023-06-04T04:52:37;18.30;88.30
5192;DHT22;2615;44.524;11.284;2023-06-04T04:55:06;18.30;88.30
5192;DHT22;2615;44.524;11.284;2023-06-04T04:57:35;18.40;88.30
5192;DHT22;2615;44.524;11.284;2023-06-04T05:00:04;18.40;88.20
5192;DHT22;2615;44.524;11.284;2023-06-04T05:02:34;18.40;88.10
5192;DHT22;2615;44.524;11.284;2023-06-04T05:05:03;18.50;88.10
5192;DHT22;2615;44.524;11.284;2023-06-04T05:07:32;18.50;87.90
5192;DHT22;2615;44.524;11.284;2023-06-04T05:10:00;18.60;88.70
5192;DHT22;2615;44.524;11.284;2023-06-04T05:12:30;18.60;87.80
5192;DHT22;2615;44.524;11.284;2023-06-04T05:15:00;18.60;87.80
5192;DHT22;2615;44.524;11.284;2023-06-04T05:17:28;18.70;87.90
5192;DHT22;2615;44.524;11.284;2023-06-04T05:19:57;18.70;87.80
5192;DHT22;2615;44.524;11.284;2023-06-04T05:22:38;18.70;87.70
5192;DHT22;2615;44.524;11.284;2023-06-04T05:27:36;18.80;87.20
5192;DHT22;2615;44.524;11.284;2023-06-04T05:30:08;18.80;87.80
5192;DHT22;2615;44.524;11.284;2023-06-04T05:32:36;18.90;87.90
5192;DHT22;2615;44.524;11.284;2023-06-04T05:35:08;18.90;87.70
5192;DHT22;2615;44.524;11.284;2023-06-04T05:37:37;19.00;88.40
5192;DHT22;2615;44.524;11.284;2023-06-04T05:40:08;19.00;87.60
5192;DHT22;2615;44.524;11.284;2023-06-04T05:42:37;19.10;87.60
5192;DHT22;2615;44.524;11.284;2023-06-04T05:45:08;19.20;87.50
5192;DHT22;2615;44.524;11.284;2023-06-04T05:47:36;19.20;87.40
5192;DHT22;2615;44.524;11.284;2023-06-04T05:50:05;19.30;87.40
5192;DHT22;2615;44.524;11.284;2023-06-04T05:52:33;19.30;87.30
5192;DHT22;2615;44.524;11.284;2023-06-04T05:55:04;19.40;87.30
5192;DHT22;2615;44.524;11.284;2023-06-04T05:57:34;19.40;87.10
5192;DHT22;2615;44.524;11.284;2023-06-04T06:00:03;19.50;87.00
5192;DHT22;2615;44.524;11.284;2023-06-04T06:02:37;19.50;86.80
5192;DHT22;2615;44.524;11.284;2023-06-04T06:05:06;19.50;86.60
5192;DHT22;2615;44.524;11.284;2023-06-04T06:07:35;19.60;86.50
5192;DHT22;2615;44.524;11.284;2023-06-04T06:10:04;19.70;86.40
5192;DHT22;2615;44.524;11.284;2023-06-04T06:12:32;19.70;86.30
5192;DHT22;2615;44.524;11.284;2023-06-04T06:15:01;19.80;86.20
5192;DHT22;2615;44.524;11.284;2023-06-04T06:17:29;19.80;86.00
5192;DHT22;2615;44.524;11.284;2023-06-04T06:19:58;19.90;86.20
5192;DHT22;2615;44.524;11.284;2023-06-04T06:22:27;19.90;86.10
5192;DHT22;2615;44.524;11.284;2023-06-04T06:24:55;20.00;86.10
5192;DHT22;2615;44.524;11.284;2023-06-04T06:27:23;20.10;86.20
5192;DHT22;2615;44.524;11.284;2023-06-04T06:29:52;20.10;86.10
5192;DHT22;2615;44.524;11.284;2023-06-04T06:32:20;20.20;86.10
5192;DHT22;2615;44.524;11.284;2023-06-04T06:34:48;20.20;86.00
5192;DHT22;2615;44.524;11.284;2023-06-04T06:37:17;20.30;86.00
5192;DHT22;2615;44.524;11.284;2023-06-04T06:39:45;20.30;85.90
5192;DHT22;2615;44.524;11.284;2023-06-04T06:42:14;20.30;85.60
5192;DHT22;2615;44.524;11.284;2023-06-04T06:44:44;20.40;85.70
5192;DHT22;2615;44.524;11.284;2023-06-04T06:47:12;20.40;85.80
5192;DHT22;2615;44.524;11.284;2023-06-04T06:49:41;20.50;85.80
5192;DHT22;2615;44.524;11.284;2023-06-04T06:52:09;20.60;86.60
5192;DHT22;2615;44.524;11.284;2023-06-04T06:54:39;20.70;85.90
5192;DHT22;2615;44.524;11.284;2023-06-04T06:57:07;20.80;85.80
5192;DHT22;2615;44.524;11.284;2023-06-04T06:59:36;20.80;85.70
5192;DHT22;2615;44.524;11.284;2023-06-04T07:02:04;20.90;85.60
5192;DHT22;2615;44.524;11.284;2023-06-04T07:04:33;20.90;85.40
5192;DHT22;2615;44.524;11.284;2023-06-04T07:07:01;21.00;85.30
5192;DHT22;2615;44.524;11.284;2023-06-04T07:09:29;21.10;85.30
5192;DHT22;2615;44.524;11.284;2023-06-04T07:11:59;21.20;85.10
5192;DHT22;2615;44.524;11.284;2023-06-04T07:14:27;21.20;84.80
5192;DHT22;2615;44.524;11.284;2023-06-04T07:16:55;21.30;84.80
5192;DHT22;2615;44.524;11.284;2023-06-04T07:19:23;21.30;84.50
5192;DHT22;2615;44.524;11.284;2023-06-04T07:21:54;21.30;84.30
5192;DHT22;2615;44.524;11.284;2023-06-04T07:24:22;21.30;84.10
5192;DHT22;2615;44.524;11.284;2023-06-04T07:26:51;21.30;84.00
5192;DHT22;2615;44.524;11.284;2023-06-04T07:29:21;21.30;83.80
5192;DHT22;2615;44.524;11.284;2023-06-04T07:31:50;21.30;83.80
5192;DHT22;2615;44.524;11.284;2023-06-04T07:34:18;21.30;83.70
5192;DHT22;2615;44.524;11.284;2023-06-04T07:36:46;21.30;83.70
5192;DHT22;2615;44.524;11.284;2023-06-04T07:39:15;21.20;83.60
5192;DHT22;2615;44.524;11.284;2023-06-04T07:41:43;21.20;83.60
5192;DHT22;2615;44.524;11.284;2023-06-04T07:44:11;21.20;83.70
5192;DHT22;2615;44.524;11.284;2023-06-04T07:46:41;21.20;83.90
5192;DHT22;2615;44.524;11.284;2023-06-04T07:49:09;21.20;83.80
5192;DHT22;2615;44.524;11.284;2023-06-04T07:51:37;21.30;83.70
5192;DHT22;2615;44.524;11.284;2023-06-04T07:54:05;21.30;83.60
5192;DHT22;2615;44.524;11.284;2023-06-04T07:56:33;21.40;83.50
5192;DHT22;2615;44.524;11.284;2023-06-04T07:59:02;21.50;83.60
5192;DHT22;2615;44.524;11.284;2023-06-04T08:01:30;21.70;83.70
5192;DHT22;2615;44.524;11.284;2023-06-04T08:03:59;21.80;83.60
5192;DHT22;2615;44.524;11.284;2023-06-04T08:06:28;22.00;83.60
5192;DHT22;2615;44.524;11.284;2023-06-04T08:08:56;22.10;83.30
5192;DHT22;2615;44.524;11.284;2023-06-04T08:11:24;22.20;83.10
5192;DHT22;2615;44.524;11.284;2023-06-04T08:13:53;22.30;82.70
5192;DHT22;2615;44.524;11.284;2023-06-04T08:16:21;22.40;82.40
5192;DHT22;2615;44.524;11.284;2023-06-04T08:18:49;22.40;82.00
5192;DHT22;2615;44.524;11.284;2023-06-04T08:21:26;22.60;81.80
5192;DHT22;2615;44.524;11.284;2023-06-04T08:23:55;22.70;81.50
5192;DHT22;2615;44.524;11.284;2023-06-04T08:26:23;22.80;81.30
5192;DHT22;2615;44.524;11.284;2023-06-04T08:28:54;22.90;81.00
5192;DHT22;2615;44.524;11.284;2023-06-04T08:31:22;23.00;80.70
5192;DHT22;2615;44.524;11.284;2023-06-04T08:33:50;23.10;80.60
5192;DHT22;2615;44.524;11.284;2023-06-04T08:36:19;23.10;80.50
5192;DHT22;2615;44.524;11.284;2023-06-04T08:38:48;23.30;80.60
5192;DHT22;2615;44.524;11.284;2023-06-04T08:41:24;23.40;80.30
5192;DHT22;2615;44.524;11.284;2023-06-04T08:43:56;23.50;79.70
5192;DHT22;2615;44.524;11.284;2023-06-04T08:46:28;23.60;79.40
5192;DHT22;2615;44.524;11.284;2023-06-04T08:49:00;23.70;79.40
5192;DHT22;2615;44.524;11.284;2023-06-04T08:51:29;23.70;79.10
5192;DHT22;2615;44.524;11.284;2023-06-04T08:54:03;23.80;79.00
5192;DHT22;2615;44.524;11.284;2023-06-04T08:56:32;23.90;78.60
5192;DHT22;2615;44.524;11.284;2023-06-04T08:59:02;24.10;78.60
5192;DHT22;2615;44.524;11.284;2023-06-04T09:01:31;24.20;78.20
5192;DHT22;2615;44.524;11.284;2023-06-04T09:04:04;24.30;77.80
5192;DHT22;2615;44.524;11.284;2023-06-04T09:06:36;24.50;77.40
5192;DHT22;2615;44.524;11.284;2023-06-04T09:09:09;24.60;77.10
5192;DHT22;2615;44.524;11.284;2023-06-04T09:11:42;24.60;76.60
5192;DHT22;2615;44.524;11.284;2023-06-04T09:14:14;24.60;76.60
5192;DHT22;2615;44.524;11.284;2023-06-04T09:16:44;24.60;76.80
5192;DHT22;2615;44.524;11.284;2023-06-04T09:19:13;24.60;76.90
5192;DHT22;2615;44.524;11.284;2023-06-04T09:21:49;24.70;76.70
5192;DHT22;2615;44.524;11.284;2023-06-04T09:24:20;24.70;76.20
5192;DHT22;2615;44.524;11.284;2023-06-04T09:26:49;24.60;75.90
5192;DHT22;2615;44.524;11.284;2023-06-04T09:29:18;24.60;75.80
5192;DHT22;2615;44.524;11.284;2023-06-04T09:31:46;24.60;75.70
5192;DHT22;2615;44.524;11.284;2023-06-04T09:34:15;24.70;75.70
5192;DHT22;2615;44.524;11.284;2023-06-04T09:36:43;24.70;75.80
5192;DHT22;2615;44.524;11.284;2023-06-04T09:39:18;24.80;75.70
5192;DHT22;2615;44.524;11.284;2023-06-04T09:41:57;24.90;75.50
5192;DHT22;2615;44.524;11.284;2023-06-04T09:44:26;24.90;75.20
5192;DHT22;2615;44.524;11.284;2023-06-04T09:46:55;24.90;74.90
5192;DHT22;2615;44.524;11.284;2023-06-04T09:49:24;24.90;74.50
5192;DHT22;2615;44.524;11.284;2023-06-04T09:51:52;24.90;74.50
5192;DHT22;2615;44.524;11.284;2023-06-04T09:54:21;24.90;74.10
5192;DHT22;2615;44.524;11.284;2023-06-04T09:56:49;24.90;73.80
5192;DHT22;2615;44.524;11.284;2023-06-04T09:59:18;24.90;73.80
5192;DHT22;2615;44.524;11.284;2023-06-04T10:01:47;24.90;73.70
5192;DHT22;2615;44.524;11.284;2023-06-04T10:04:15;24.90;73.80
5192;DHT22;2615;44.524;11.284;2023-06-04T10:06:44;25.00;73.80
5192;DHT22;2615;44.524;11.284;2023-06-04T10:09:13;25.10;73.70
5192;DHT22;2615;44.524;11.284;2023-06-04T10:11:47;25.20;73.90
5192;DHT22;2615;44.524;11.284;2023-06-04T10:14:22;25.20;74.00
5192;DHT22;2615;44.524;11.284;2023-06-04T10:16:51;25.40;74.10
5192;DHT22;2615;44.524;11.284;2023-06-04T10:19:20;25.50;73.80
5192;DHT22;2615;44.524;11.284;2023-06-04T10:21:49;25.70;73.30
5192;DHT22;2615;44.524;11.284;2023-06-04T10:24:18;25.80;73.10
5192;DHT22;2615;44.524;11.284;2023-06-04T10:26:50;25.90;72.90
5192;DHT22;2615;44.524;11.284;2023-06-04T10:29:20;26.00;72.50
5192;DHT22;2615;44.524;11.284;2023-06-04T10:31:52;26.10;72.20
5192;DHT22;2615;44.524;11.284;2023-06-04T10:34:21;26.20;72.00
5192;DHT22;2615;44.524;11.284;2023-06-04T10:36:49;26.20;71.70
5192;DHT22;2615;44.524;11.284;2023-06-04T10:39:25;26.20;71.40
5192;DHT22;2615;44.524;11.284;2023-06-04T10:42:03;26.20;70.70
5192;DHT22;2615;44.524;11.284;2023-06-04T10:44:44;26.30;70.50
5192;DHT22;2615;44.524;11.284;2023-06-04T10:47:19;26.40;70.50
5192;DHT22;2615;44.524;11.284;2023-06-04T10:49:47;26.40;70.30
5192;DHT22;2615;44.524;11.284;2023-06-04T10:52:15;26.50;70.30
5192;DHT22;2615;44.524;11.284;2023-06-04T10:54:45;26.60;69.70
5192;DHT22;2615;44.524;11.284;2023-06-04T10:57:17;26.70;69.20
5192;DHT22;2615;44.524;11.284;2023-06-04T10:59:54;26.70;69.00
5192;DHT22;2615;44.524;11.284;2023-06-04T11:02:22;26.70;68.80
5192;DHT22;2615;44.524;11.284;2023-06-04T11:04:59;26.50;68.70
5192;DHT22;2615;44.524;11.284;2023-06-04T11:07:43;26.50;68.50
5192;DHT22;2615;44.524;11.284;2023-06-04T11:10:12;26.60;68.40
5192;DHT22;2615;44.524;11.284;2023-06-04T11:12:43;26.70;68.20
5192;DHT22;2615;44.524;11.284;2023-06-04T11:15:11;26.80;67.80
5192;DHT22;2615;44.524;11.284;2023-06-04T11:17:52;26.90;67.50
5192;DHT22;2615;44.524;11.284;2023-06-04T11:20:21;27.00;67.30
5192;DHT22;2615;44.524;11.284;2023-06-04T11:22:54;27.00;67.30
5192;DHT22;2615;44.524;11.284;2023-06-04T11:25:24;27.10;67.20
5192;DHT22;2615;44.524;11.284;2023-06-04T11:27:54;27.20;67.10
5192;DHT22;2615;44.524;11.284;2023-06-04T11:30:24;27.40;66.90
5192;DHT22;2615;44.524;11.284;2023-06-04T11:33:00;27.60;66.50
5192;DHT22;2615;44.524;11.284;2023-06-04T11:35:28;27.80;65.90
5192;DHT22;2615;44.524;11.284;2023-06-04T11:37:59;28.00;65.60
5192;DHT22;2615;44.524;11.284;2023-06-04T11:40:27;28.20;65.10
5192;DHT22;2615;44.524;11.284;2023-06-04T11:42:57;28.40;64.60
5192;DHT22;2615;44.524;11.284;2023-06-04T11:45:27;28.60;63.90
5192;DHT22;2615;44.524;11.284;2023-06-04T11:47:57;28.60;63.30
5192;DHT22;2615;44.524;11.284;2023-06-04T11:50:28;28.60;63.30
5192;DHT22;2615;44.524;11.284;2023-06-04T11:52:56;28.70;63.30
5192;DHT22;2615;44.524;11.284;2023-06-04T11:55:25;28.80;63.20
5192;DHT22;2615;44.524;11.284;2023-06-04T11:57:53;29.00;63.20
5192;DHT22;2615;44.524;11.284;2023-06-04T12:00:23;29.20;62.80
5192;DHT22;2615;44.524;11.284;2023-06-04T12:02:52;29.30;62.10
5192;DHT22;2615;44.524;11.284;2023-06-04T12:05:22;29.40;61.60
5192;DHT22;2615;44.524;11.284;2023-06-04T12:07:51;29.40;60.90
5192;DHT22;2615;44.524;11.284;2023-06-04T12:10:20;29.40;60.50
5192;DHT22;2615;44.524;11.284;2023-06-04T12:12:54;29.40;60.20
5192;DHT22;2615;44.524;11.284;2023-06-04T12:15:24;29.50;60.20
5192;DHT22;2615;44.524;11.284;2023-06-04T12:17:52;29.50;60.40
5192;DHT22;2615;44.524;11.284;2023-06-04T12:20:32;29.60;60.30
5192;DHT22;2615;44.524;11.284;2023-06-04T12:23:01;29.60;60.00
5192;DHT22;2615;44.524;11.284;2023-06-04T12:25:30;29.70;59.90
5192;DHT22;2615;44.524;11.284;2023-06-04T12:27:58;29.70;59.80
5192;DHT22;2615;44.524;11.284;2023-06-04T12:30:38;29.80;59.70
5192;DHT22;2615;44.524;11.284;2023-06-04T12:33:07;29.80;59.40
5192;DHT22;2615;44.524;11.284;2023-06-04T12:35:35;29.80;59.40
5192;DHT22;2615;44.524;11.284;2023-06-04T12:38:04;29.70;59.10
5192;DHT22;2615;44.524;11.284;2023-06-04T12:40:35;29.60;58.80
5192;DHT22;2615;44.524;11.284;2023-06-04T12:43:05;29.40;58.70
5192;DHT22;2615;44.524;11.284;2023-06-04T12:45:33;29.20;58.50
5192;DHT22;2615;44.524;11.284;2023-06-04T12:48:03;29.10;58.60
5192;DHT22;2615;44.524;11.284;2023-06-04T12:50:32;29.00;58.60
5192;DHT22;2615;44.524;11.284;2023-06-04T12:53:00;28.90;58.40
5192;DHT22;2615;44.524;11.284;2023-06-04T12:55:28;28.80;58.60
5192;DHT22;2615;44.524;11.284;2023-06-04T12:57:56;28.70;58.90
5192;DHT22;2615;44.524;11.284;2023-06-04T13:00:25;28.60;59.10
5192;DHT22;2615;44.524;11.284;2023-06-04T13:02:53;28.50;59.70
5192;DHT22;2615;44.524;11.284;2023-06-04T13:05:23;28.60;59.20
5192;DHT22;2615;44.524;11.284;2023-06-04T13:07:51;28.50;59.00
5192;DHT22;2615;44.524;11.284;2023-06-04T13:10:19;28.50;59.00
5192;DHT22;2615;44.524;11.284;2023-06-04T13:12:48;28.40;58.90
5192;DHT22;2615;44.524;11.284;2023-06-04T13:15:16;28.40;58.80
5192;DHT22;2615;44.524;11.284;2023-06-04T13:17:44;28.40;58.80
5192;DHT22;2615;44.524;11.284;2023-06-04T13:20:12;28.30;58.70
5192;DHT22;2615;44.524;11.284;2023-06-04T13:22:42;28.30;58.70
5192;DHT22;2615;44.524;11.284;2023-06-04T13:25:10;28.20;58.70
5192;DHT22;2615;44.524;11.284;2023-06-04T13:27:39;28.20;58.60
5192;DHT22;2615;44.524;11.284;2023-06-04T13:30:08;28.20;58.70
5192;DHT22;2615;44.524;11.284;2023-06-04T13:32:37;28.10;58.70
5192;DHT22;2615;44.524;11.284;2023-06-04T13:35:06;28.10;58.80
5192;DHT22;2615;44.524;11.284;2023-06-04T13:37:34;28.00;58.80
5192;DHT22;2615;44.524;11.284;2023-06-04T13:40:05;28.00;58.70
5192;DHT22;2615;44.524;11.284;2023-06-04T13:42:33;28.00;58.80
5192;DHT22;2615;44.524;11.284;2023-06-04T13:45:02;27.90;58.70
5192;DHT22;2615;44.524;11.284;2023-06-04T13:47:30;27.90;58.80
5192;DHT22;2615;44.524;11.284;2023-06-04T13:49:59;27.90;58.80
5192;DHT22;2615;44.524;11.284;2023-06-04T13:52:27;27.80;58.70
5192;DHT22;2615;44.524;11.284;2023-06-04T13:54:56;27.80;58.70
5192;DHT22;2615;44.524;11.284;2023-06-04T13:57:27;27.70;58.70
5192;DHT22;2615;44.524;11.284;2023-06-04T13:59:55;27.70;58.80
5192;DHT22;2615;44.524;11.284;2023-06-04T14:02:23;27.70;58.90
5192;DHT22;2615;44.524;11.284;2023-06-04T14:04:56;27.60;59.00
5192;DHT22;2615;44.524;11.284;2023-06-04T14:07:28;27.60;59.00
5192;DHT22;2615;44.524;11.284;2023-06-04T14:09:58;27.60;59.00
5192;DHT22;2615;44.524;11.284;2023-06-04T14:12:32;27.60;59.00
5192;DHT22;2615;44.524;11.284;2023-06-04T14:15:02;27.60;58.80
5192;DHT22;2615;44.524;11.284;2023-06-04T14:17:32;27.60;58.80
5192;DHT22;2615;44.524;11.284;2023-06-04T14:20:05;27.60;58.80
5192;DHT22;2615;44.524;11.284;2023-06-04T14:22:49;27.50;58.50
5192;DHT22;2615;44.524;11.284;2023-06-04T14:25:24;27.50;58.20
5192;DHT22;2615;44.524;11.284;2023-06-04T14:27:57;27.40;58.20
5192;DHT22;2615;44.524;11.284;2023-06-04T14:30:27;27.40;58.20
5192;DHT22;2615;44.524;11.284;2023-06-04T14:32:58;27.30;58.10
5192;DHT22;2615;44.524;11.284;2023-06-04T14:35:34;27.30;58.00
5192;DHT22;2615;44.524;11.284;2023-06-04T14:38:04;27.20;58.00
5192;DHT22;2615;44.524;11.284;2023-06-04T14:40:34;27.20;58.20
5192;DHT22;2615;44.524;11.284;2023-06-04T14:43:10;27.20;58.30
5192;DHT22;2615;44.524;11.284;2023-06-04T14:45:43;27.10;58.30
5192;DHT22;2615;44.524;11.284;2023-06-04T14:48:18;27.10;58.30
5192;DHT22;2615;44.524;11.284;2023-06-04T14:50:48;27.10;58.20
5192;DHT22;2615;44.524;11.284;2023-06-04T14:53:24;27.10;58.40
5192;DHT22;2615;44.524;11.284;2023-06-04T14:55:54;27.00;58.40
5192;DHT22;2615;44.524;11.284;2023-06-04T14:58:25;27.00;58.40
5192;DHT22;2615;44.524;11.284;2023-06-04T15:00:55;27.00;58.60
5192;DHT22;2615;44.524;11.284;2023-06-04T15:03:28;26.90;58.80
5192;DHT22;2615;44.524;11.284;2023-06-04T15:05:59;26.90;58.90
5192;DHT22;2615;44.524;11.284;2023-06-04T15:08:37;26.80;59.10
5192;DHT22;2615;44.524;11.284;2023-06-04T15:11:14;26.70;59.40
5192;DHT22;2615;44.524;11.284;2023-06-04T15:13:46;26.60;60.00
5192;DHT22;2615;44.524;11.284;2023-06-04T15:16:16;26.40;60.30
5192;DHT22;2615;44.524;11.284;2023-06-04T15:18:46;26.20;60.70
5192;DHT22;2615;44.524;11.284;2023-06-04T15:21:16;26.00;61.80
5192;DHT22;2615;44.524;11.284;2023-06-04T15:23:46;25.80;63.30
5192;DHT22;2615;44.524;11.284;2023-06-04T15:26:16;25.40;64.20
5192;DHT22;2615;44.524;11.284;2023-06-04T15:28:45;25.00;64.90
5192;DHT22;2615;44.524;11.284;2023-06-04T15:31:13;24.60;65.60
5192;DHT22;2615;44.524;11.284;2023-06-04T15:33:43;24.10;66.10
5192;DHT22;2615;44.524;11.284;2023-06-04T15:36:11;23.70;66.40
5192;DHT22;2615;44.524;11.284;2023-06-04T15:38:39;23.40;67.00
5192;DHT22;2615;44.524;11.284;2023-06-04T15:41:07;23.10;67.40
5192;DHT22;2615;44.524;11.284;2023-06-04T15:43:35;22.90;67.90
5192;DHT22;2615;44.524;11.284;2023-06-04T15:46:05;22.70;68.30
5192;DHT22;2615;44.524;11.284;2023-06-04T15:48:33;22.50;68.70
5192;DHT22;2615;44.524;11.284;2023-06-04T15:51:01;22.30;69.10
5192;DHT22;2615;44.524;11.284;2023-06-04T15:53:29;22.10;69.50
5192;DHT22;2615;44.524;11.284;2023-06-04T15:55:58;21.90;70.10
5192;DHT22;2615;44.524;11.284;2023-06-04T15:58:26;21.70;70.40
5192;DHT22;2615;44.524;11.284;2023-06-04T16:00:54;21.60;70.80
5192;DHT22;2615;44.524;11.284;2023-06-04T16:03:25;21.50;71.20